This is the latest recevied weather packets stored in our database for station/object KD0JCP-10. If no packets are shown the sender has not sent any weather packets the latest 1 day(s).
| Time | Temp. | Humidity | Pressure | Rain* | Wind** | Luminosity | Snow |
|---|---|---|---|---|---|---|---|
| 1778089870 | 12.78° C | 35% | 1021.5 hPa | 0 mm | - | - | - |
| 1778089570 | 12.22° C | 32% | 1021.5 hPa | 0 mm | - | - | - |
| 1778089270 | 12.22° C | 36% | 1021.4 hPa | 0 mm | - | - | - |
| 1778088670 | 13.33° C | 32% | 1021.4 hPa | 0 mm | - | - | - |
| 1778088370 | 13.33° C | 32% | 1021.5 hPa | 0 mm | - | - | - |
| 1778087770 | 12.22° C | 36% | 1021.4 hPa | 0 mm | - | - | - |
| 1778087470 | 11.67° C | 34% | 1021.6 hPa | 0 mm | - | - | - |
| 1778087170 | 12.22° C | 34% | 1021.6 hPa | 0 mm | - | - | - |
| 1778086270 | 12.22° C | 32% | 1021.6 hPa | 0 mm | - | - | - |
| 1778085970 | 12.22° C | 33% | 1021.7 hPa | 0 mm | - | - | - |
| 1778085670 | 12.22° C | 34% | 1021.6 hPa | 0 mm | - | - | - |
| 1778085070 | 12.22° C | 34% | 1021.7 hPa | 0 mm | - | - | - |
| 1778084170 | 12.22° C | 36% | 1021.8 hPa | 0 mm | - | - | - |
| 1778083870 | 11.67° C | 37% | 1021.8 hPa | 0 mm | - | - | - |
| 1778067371 | 4.44° C | 66% | 1019.8 hPa | 0 mm | - | - | - |
| 1778066771 | 4.44° C | 66% | 1019.7 hPa | 0 mm | - | - | - |
| 1778066471 | 4.44° C | 66% | 1019.6 hPa | 0 mm | - | - | - |
| 1778066171 | 4.44° C | 65% | 1019.6 hPa | 0 mm | - | - | - |
| 1778065871 | 4.44° C | 65% | 1019.6 hPa | 0 mm | - | - | - |
| 1778065571 | 4.44° C | 65% | 1019.5 hPa | 0 mm | - | - | - |
| 1778065271 | 4.44° C | 65% | 1019.5 hPa | 0 mm | - | - | - |
| 1778064971 | 4.44° C | 63% | 1019.5 hPa | 0 mm | - | - | - |
| 1778064671 | 4.44° C | 64% | 1019.5 hPa | 0 mm | - | - | - |
| 1778064371 | 4.44° C | 64% | 1019.4 hPa | 0 mm | - | - | - |
| 1778064071 | 4.44° C | 64% | 1019.3 hPa | 0 mm | - | - | - |
* Rain latest hour (hover to see other rain measurements)
** Current wind speed in m/s (hover to see current wind gust speed)